sensor_id;sensor_type;location;lat;lon;timestamp;P1;durP1;ratioP1;P2;durP2;ratioP2
64225;SDS011;50545;56.064;26.178;2023-01-04T00:01:16;1.02;;;0.90;;
64225;SDS011;50545;56.064;26.178;2023-01-04T00:03:44;2.53;;;0.80;;
64225;SDS011;50545;56.064;26.178;2023-01-04T00:06:13;1.55;;;0.90;;
64225;SDS011;50545;56.064;26.178;2023-01-04T00:08:42;1.08;;;0.90;;
64225;SDS011;50545;56.064;26.178;2023-01-04T00:11:11;3.70;;;1.05;;
64225;SDS011;50545;56.064;26.178;2023-01-04T00:13:39;1.75;;;0.88;;
64225;SDS011;50545;56.064;26.178;2023-01-04T00:16:08;0.90;;;0.88;;
64225;SDS011;50545;56.064;26.178;2023-01-04T00:18:38;2.08;;;1.15;;
64225;SDS011;50545;56.064;26.178;2023-01-04T00:21:13;1.42;;;0.82;;
64225;SDS011;50545;56.064;26.178;2023-01-04T00:23:43;1.15;;;0.73;;
64225;SDS011;50545;56.064;26.178;2023-01-04T00:26:13;1.77;;;1.03;;
64225;SDS011;50545;56.064;26.178;2023-01-04T00:28:46;2.22;;;0.80;;
64225;SDS011;50545;56.064;26.178;2023-01-04T00:31:19;2.75;;;1.02;;
64225;SDS011;50545;56.064;26.178;2023-01-04T00:33:47;1.25;;;0.80;;
64225;SDS011;50545;56.064;26.178;2023-01-04T00:36:15;1.60;;;0.93;;
64225;SDS011;50545;56.064;26.178;2023-01-04T00:38:42;1.65;;;0.98;;
64225;SDS011;50545;56.064;26.178;2023-01-04T00:41:09;1.52;;;0.80;;
64225;SDS011;50545;56.064;26.178;2023-01-04T00:43:57;2.03;;;0.70;;
64225;SDS011;50545;56.064;26.178;2023-01-04T00:46:29;1.92;;;0.98;;
64225;SDS011;50545;56.064;26.178;2023-01-04T00:48:58;1.75;;;0.77;;
64225;SDS011;50545;56.064;26.178;2023-01-04T00:51:26;0.75;;;0.57;;
64225;SDS011;50545;56.064;26.178;2023-01-04T00:53:55;1.67;;;0.77;;
64225;SDS011;50545;56.064;26.178;2023-01-04T00:56:23;1.52;;;0.80;;
64225;SDS011;50545;56.064;26.178;2023-01-04T00:58:54;1.63;;;0.90;;
64225;SDS011;50545;56.064;26.178;2023-01-04T01:01:22;0.95;;;0.70;;
64225;SDS011;50545;56.064;26.178;2023-01-04T01:03:56;1.15;;;0.70;;
64225;SDS011;50545;56.064;26.178;2023-01-04T01:06:25;0.70;;;0.60;;
64225;SDS011;50545;56.064;26.178;2023-01-04T01:08:54;1.52;;;0.80;;
64225;SDS011;50545;56.064;26.178;2023-01-04T01:11:22;1.63;;;0.60;;
64225;SDS011;50545;56.064;26.178;2023-01-04T01:13:50;1.23;;;0.75;;
64225;SDS011;50545;56.064;26.178;2023-01-04T01:16:19;0.70;;;0.70;;
64225;SDS011;50545;56.064;26.178;2023-01-04T01:19:08;2.50;;;1.00;;
64225;SDS011;50545;56.064;26.178;2023-01-04T01:21:35;0.57;;;0.40;;
64225;SDS011;50545;56.064;26.178;2023-01-04T01:24:03;0.90;;;0.73;;
64225;SDS011;50545;56.064;26.178;2023-01-04T01:26:31;1.33;;;0.77;;
64225;SDS011;50545;56.064;26.178;2023-01-04T01:28:58;2.20;;;1.05;;
64225;SDS011;50545;56.064;26.178;2023-01-04T01:31:26;1.70;;;0.90;;
64225;SDS011;50545;56.064;26.178;2023-01-04T01:33:54;1.05;;;0.73;;
64225;SDS011;50545;56.064;26.178;2023-01-04T01:36:24;1.25;;;0.82;;
64225;SDS011;50545;56.064;26.178;2023-01-04T01:38:52;1.23;;;0.77;;
64225;SDS011;50545;56.064;26.178;2023-01-04T01:41:24;0.50;;;0.50;;
64225;SDS011;50545;56.064;26.178;2023-01-04T01:52:07;1.50;;;0.93;;
64225;SDS011;50545;56.064;26.178;2023-01-04T01:54:38;1.92;;;0.68;;
64225;SDS011;50545;56.064;26.178;2023-01-04T01:57:10;2.33;;;1.10;;
64225;SDS011;50545;56.064;26.178;2023-01-04T01:59:42;0.93;;;0.65;;
64225;SDS011;50545;56.064;26.178;2023-01-04T02:02:11;0.70;;;0.63;;
64225;SDS011;50545;56.064;26.178;2023-01-04T02:04:40;1.67;;;0.80;;
64225;SDS011;50545;56.064;26.178;2023-01-04T02:07:10;2.17;;;1.15;;
64225;SDS011;50545;56.064;26.178;2023-01-04T02:09:43;2.60;;;0.90;;
64225;SDS011;50545;56.064;26.178;2023-01-04T02:12:12;1.45;;;0.70;;
64225;SDS011;50545;56.064;26.178;2023-01-04T02:14:40;0.95;;;0.73;;
64225;SDS011;50545;56.064;26.178;2023-01-04T02:20:25;3.22;;;1.40;;
64225;SDS011;50545;56.064;26.178;2023-01-04T02:31:04;2.25;;;0.68;;
64225;SDS011;50545;56.064;26.178;2023-01-04T02:33:48;1.80;;;0.70;;
64225;SDS011;50545;56.064;26.178;2023-01-04T02:36:40;1.45;;;0.98;;
64225;SDS011;50545;56.064;26.178;2023-01-04T02:44:52;3.28;;;1.15;;
64225;SDS011;50545;56.064;26.178;2023-01-04T02:47:26;3.05;;;1.35;;
64225;SDS011;50545;56.064;26.178;2023-01-04T02:58:07;4.30;;;2.30;;
64225;SDS011;50545;56.064;26.178;2023-01-04T03:03:54;5.00;;;1.60;;
64225;SDS011;50545;56.064;26.178;2023-01-04T03:07:01;3.55;;;1.38;;
64225;SDS011;50545;56.064;26.178;2023-01-04T03:09:38;3.20;;;1.67;;
64225;SDS011;50545;56.064;26.178;2023-01-04T03:12:11;3.92;;;1.20;;
64225;SDS011;50545;56.064;26.178;2023-01-04T03:15:05;4.65;;;1.95;;
64225;SDS011;50545;56.064;26.178;2023-01-04T03:18:06;2.42;;;1.67;;
64225;SDS011;50545;56.064;26.178;2023-01-04T03:20:35;1.17;;;0.90;;
64225;SDS011;50545;56.064;26.178;2023-01-04T03:23:09;0.85;;;0.75;;
64225;SDS011;50545;56.064;26.178;2023-01-04T03:26:02;2.47;;;0.98;;
64225;SDS011;50545;56.064;26.178;2023-01-04T03:28:49;2.33;;;0.98;;
64225;SDS011;50545;56.064;26.178;2023-01-04T03:31:38;2.13;;;1.13;;
64225;SDS011;50545;56.064;26.178;2023-01-04T03:34:28;0.98;;;0.88;;
64225;SDS011;50545;56.064;26.178;2023-01-04T03:40:08;1.02;;;0.90;;
64225;SDS011;50545;56.064;26.178;2023-01-04T03:43:21;1.58;;;0.77;;
64225;SDS011;50545;56.064;26.178;2023-01-04T03:46:28;1.88;;;1.17;;
64225;SDS011;50545;56.064;26.178;2023-01-04T03:51:56;4.95;;;1.88;;
64225;SDS011;50545;56.064;26.178;2023-01-04T03:54:33;2.97;;;1.40;;
64225;SDS011;50545;56.064;26.178;2023-01-04T03:57:03;1.92;;;0.90;;
64225;SDS011;50545;56.064;26.178;2023-01-04T03:59:31;1.40;;;1.00;;
64225;SDS011;50545;56.064;26.178;2023-01-04T04:02:21;2.47;;;1.08;;
64225;SDS011;50545;56.064;26.178;2023-01-04T04:04:50;2.80;;;1.13;;
64225;SDS011;50545;56.064;26.178;2023-01-04T04:07:36;1.60;;;0.70;;
64225;SDS011;50545;56.064;26.178;2023-01-04T04:10:22;3.28;;;1.17;;
64225;SDS011;50545;56.064;26.178;2023-01-04T04:12:49;2.15;;;0.82;;
64225;SDS011;50545;56.064;26.178;2023-01-04T04:15:17;1.52;;;0.73;;
64225;SDS011;50545;56.064;26.178;2023-01-04T04:17:44;1.35;;;0.80;;
64225;SDS011;50545;56.064;26.178;2023-01-04T04:20:12;1.17;;;0.80;;
64225;SDS011;50545;56.064;26.178;2023-01-04T04:22:39;1.42;;;0.80;;
64225;SDS011;50545;56.064;26.178;2023-01-04T04:25:06;0.63;;;0.50;;
64225;SDS011;50545;56.064;26.178;2023-01-04T04:27:34;1.42;;;0.93;;
64225;SDS011;50545;56.064;26.178;2023-01-04T04:30:01;3.42;;;1.40;;
64225;SDS011;50545;56.064;26.178;2023-01-04T04:32:29;1.85;;;1.00;;
64225;SDS011;50545;56.064;26.178;2023-01-04T04:34:56;2.42;;;1.05;;
64225;SDS011;50545;56.064;26.178;2023-01-04T04:37:23;4.68;;;1.35;;
64225;SDS011;50545;56.064;26.178;2023-01-04T04:39:52;1.63;;;1.10;;
64225;SDS011;50545;56.064;26.178;2023-01-04T04:42:19;0.82;;;0.80;;
64225;SDS011;50545;56.064;26.178;2023-01-04T04:44:47;1.92;;;0.95;;
64225;SDS011;50545;56.064;26.178;2023-01-04T04:47:14;0.77;;;0.73;;
64225;SDS011;50545;56.064;26.178;2023-01-04T04:49:41;2.50;;;1.05;;
64225;SDS011;50545;56.064;26.178;2023-01-04T04:52:08;1.15;;;0.90;;
64225;SDS011;50545;56.064;26.178;2023-01-04T04:54:35;2.03;;;0.75;;
64225;SDS011;50545;56.064;26.178;2023-01-04T04:57:03;1.40;;;0.90;;
64225;SDS011;50545;56.064;26.178;2023-01-04T04:59:30;0.73;;;0.65;;
64225;SDS011;50545;56.064;26.178;2023-01-04T05:01:57;1.10;;;0.55;;
64225;SDS011;50545;56.064;26.178;2023-01-04T05:04:25;2.17;;;0.90;;
64225;SDS011;50545;56.064;26.178;2023-01-04T05:06:52;0.75;;;0.40;;
64225;SDS011;50545;56.064;26.178;2023-01-04T05:09:19;1.50;;;0.85;;
64225;SDS011;50545;56.064;26.178;2023-01-04T05:11:46;1.00;;;0.75;;
64225;SDS011;50545;56.064;26.178;2023-01-04T05:14:32;1.02;;;0.80;;
64225;SDS011;50545;56.064;26.178;2023-01-04T05:16:59;1.00;;;0.65;;
64225;SDS011;50545;56.064;26.178;2023-01-04T05:19:26;2.17;;;1.05;;
64225;SDS011;50545;56.064;26.178;2023-01-04T05:21:53;0.50;;;0.50;;
64225;SDS011;50545;56.064;26.178;2023-01-04T05:24:21;0.50;;;0.50;;
64225;SDS011;50545;56.064;26.178;2023-01-04T05:26:48;0.55;;;0.55;;
64225;SDS011;50545;56.064;26.178;2023-01-04T05:29:15;1.02;;;0.80;;
64225;SDS011;50545;56.064;26.178;2023-01-04T05:32:01;1.42;;;0.90;;
64225;SDS011;50545;56.064;26.178;2023-01-04T05:34:28;0.80;;;0.68;;
64225;SDS011;50545;56.064;26.178;2023-01-04T05:36:55;2.28;;;0.82;;
64225;SDS011;50545;56.064;26.178;2023-01-04T05:39:23;1.75;;;0.98;;
64225;SDS011;50545;56.064;26.178;2023-01-04T05:41:50;2.72;;;1.00;;
64225;SDS011;50545;56.064;26.178;2023-01-04T05:44:35;0.95;;;0.70;;
64225;SDS011;50545;56.064;26.178;2023-01-04T05:47:03;0.65;;;0.65;;
64225;SDS011;50545;56.064;26.178;2023-01-04T05:49:38;1.42;;;0.90;;
64225;SDS011;50545;56.064;26.178;2023-01-04T05:52:05;1.88;;;0.88;;
64225;SDS011;50545;56.064;26.178;2023-01-04T05:54:32;1.95;;;0.88;;
64225;SDS011;50545;56.064;26.178;2023-01-04T05:56:59;0.90;;;0.80;;
64225;SDS011;50545;56.064;26.178;2023-01-04T05:59:27;0.90;;;0.80;;
64225;SDS011;50545;56.064;26.178;2023-01-04T06:01:54;1.50;;;0.70;;
64225;SDS011;50545;56.064;26.178;2023-01-04T06:04:21;1.70;;;1.00;;
64225;SDS011;50545;56.064;26.178;2023-01-04T06:06:48;1.13;;;0.60;;
64225;SDS011;50545;56.064;26.178;2023-01-04T06:09:16;0.95;;;0.73;;
64225;SDS011;50545;56.064;26.178;2023-01-04T06:11:43;2.13;;;1.02;;
64225;SDS011;50545;56.064;26.178;2023-01-04T06:14:10;1.90;;;0.90;;
64225;SDS011;50545;56.064;26.178;2023-01-04T06:16:38;1.48;;;0.55;;
64225;SDS011;50545;56.064;26.178;2023-01-04T06:19:05;0.65;;;0.55;;
64225;SDS011;50545;56.064;26.178;2023-01-04T06:21:32;1.05;;;0.70;;
64225;SDS011;50545;56.064;26.178;2023-01-04T06:24:00;1.20;;;0.75;;
64225;SDS011;50545;56.064;26.178;2023-01-04T06:26:27;1.40;;;0.98;;
64225;SDS011;50545;56.064;26.178;2023-01-04T06:28:54;2.10;;;1.00;;
64225;SDS011;50545;56.064;26.178;2023-01-04T06:31:21;1.27;;;0.77;;
64225;SDS011;50545;56.064;26.178;2023-01-04T06:33:49;1.25;;;0.85;;
64225;SDS011;50545;56.064;26.178;2023-01-04T06:36:16;1.55;;;1.10;;
64225;SDS011;50545;56.064;26.178;2023-01-04T06:38:45;1.88;;;1.08;;
64225;SDS011;50545;56.064;26.178;2023-01-04T06:41:13;3.25;;;1.15;;
64225;SDS011;50545;56.064;26.178;2023-01-04T06:43:41;0.57;;;0.52;;
64225;SDS011;50545;56.064;26.178;2023-01-04T06:46:08;2.05;;;0.98;;
64225;SDS011;50545;56.064;26.178;2023-01-04T06:48:35;1.85;;;0.70;;
64225;SDS011;50545;56.064;26.178;2023-01-04T06:51:03;0.50;;;0.50;;
64225;SDS011;50545;56.064;26.178;2023-01-04T06:53:30;0.98;;;0.75;;
64225;SDS011;50545;56.064;26.178;2023-01-04T06:55:57;2.65;;;1.10;;
64225;SDS011;50545;56.064;26.178;2023-01-04T06:58:24;1.42;;;0.68;;
64225;SDS011;50545;56.064;26.178;2023-01-04T07:00:52;2.45;;;0.90;;
64225;SDS011;50545;56.064;26.178;2023-01-04T07:03:20;1.55;;;0.95;;
64225;SDS011;50545;56.064;26.178;2023-01-04T07:05:48;2.20;;;1.25;;
64225;SDS011;50545;56.064;26.178;2023-01-04T07:08:15;1.65;;;1.10;;
64225;SDS011;50545;56.064;26.178;2023-01-04T07:10:43;1.30;;;0.80;;
64225;SDS011;50545;56.064;26.178;2023-01-04T07:13:10;0.98;;;0.70;;
64225;SDS011;50545;56.064;26.178;2023-01-04T07:15:37;1.45;;;0.85;;
64225;SDS011;50545;56.064;26.178;2023-01-04T07:18:09;1.02;;;0.77;;
64225;SDS011;50545;56.064;26.178;2023-01-04T07:23:04;0.68;;;0.63;;
64225;SDS011;50545;56.064;26.178;2023-01-04T07:25:32;1.23;;;0.77;;
64225;SDS011;50545;56.064;26.178;2023-01-04T07:27:59;1.35;;;0.80;;
64225;SDS011;50545;56.064;26.178;2023-01-04T07:30:27;1.65;;;0.85;;
64225;SDS011;50545;56.064;26.178;2023-01-04T07:32:54;3.65;;;1.10;;
64225;SDS011;50545;56.064;26.178;2023-01-04T07:35:22;2.20;;;1.40;;
64225;SDS011;50545;56.064;26.178;2023-01-04T07:37:49;2.35;;;1.10;;
64225;SDS011;50545;56.064;26.178;2023-01-04T07:40:23;1.52;;;0.90;;
64225;SDS011;50545;56.064;26.178;2023-01-04T07:42:55;2.17;;;1.00;;
64225;SDS011;50545;56.064;26.178;2023-01-04T07:45:24;0.70;;;0.70;;
64225;SDS011;50545;56.064;26.178;2023-01-04T07:47:52;2.17;;;1.05;;
64225;SDS011;50545;56.064;26.178;2023-01-04T07:50:19;1.35;;;0.98;;
64225;SDS011;50545;56.064;26.178;2023-01-04T07:52:46;2.40;;;1.05;;
64225;SDS011;50545;56.064;26.178;2023-01-04T07:55:13;3.22;;;1.10;;
64225;SDS011;50545;56.064;26.178;2023-01-04T07:57:40;2.90;;;1.10;;
64225;SDS011;50545;56.064;26.178;2023-01-04T08:00:08;1.08;;;0.90;;
64225;SDS011;50545;56.064;26.178;2023-01-04T08:02:36;1.95;;;1.10;;
64225;SDS011;50545;56.064;26.178;2023-01-04T08:05:04;1.58;;;0.90;;
64225;SDS011;50545;56.064;26.178;2023-01-04T08:07:32;2.85;;;1.10;;
64225;SDS011;50545;56.064;26.178;2023-01-04T08:09:59;2.10;;;0.90;;
64225;SDS011;50545;56.064;26.178;2023-01-04T08:12:27;2.13;;;0.90;;
64225;SDS011;50545;56.064;26.178;2023-01-04T08:14:54;0.95;;;0.70;;
64225;SDS011;50545;56.064;26.178;2023-01-04T08:17:21;1.75;;;0.93;;
64225;SDS011;50545;56.064;26.178;2023-01-04T08:19:48;2.13;;;1.08;;
64225;SDS011;50545;56.064;26.178;2023-01-04T08:22:15;2.97;;;1.10;;
64225;SDS011;50545;56.064;26.178;2023-01-04T08:24:43;2.42;;;1.00;;
64225;SDS011;50545;56.064;26.178;2023-01-04T08:27:10;1.33;;;0.90;;
64225;SDS011;50545;56.064;26.178;2023-01-04T08:29:37;2.42;;;1.20;;
64225;SDS011;50545;56.064;26.178;2023-01-04T08:32:04;2.38;;;1.50;;
64225;SDS011;50545;56.064;26.178;2023-01-04T08:34:32;2.72;;;1.20;;
64225;SDS011;50545;56.064;26.178;2023-01-04T08:36:59;3.00;;;0.90;;
64225;SDS011;50545;56.064;26.178;2023-01-04T08:39:26;3.17;;;1.30;;
64225;SDS011;50545;56.064;26.178;2023-01-04T08:41:55;2.28;;;1.08;;
64225;SDS011;50545;56.064;26.178;2023-01-04T08:44:26;3.00;;;1.27;;
64225;SDS011;50545;56.064;26.178;2023-01-04T08:46:53;2.20;;;1.33;;
64225;SDS011;50545;56.064;26.178;2023-01-04T08:49:21;1.48;;;0.98;;
64225;SDS011;50545;56.064;26.178;2023-01-04T08:51:49;1.63;;;1.00;;
64225;SDS011;50545;56.064;26.178;2023-01-04T08:54:16;3.58;;;1.35;;
64225;SDS011;50545;56.064;26.178;2023-01-04T08:56:44;1.38;;;1.10;;
64225;SDS011;50545;56.064;26.178;2023-01-04T08:59:11;2.53;;;1.60;;
64225;SDS011;50545;56.064;26.178;2023-01-04T09:01:39;1.48;;;0.98;;
64225;SDS011;50545;56.064;26.178;2023-01-04T09:04:07;2.17;;;0.93;;
64225;SDS011;50545;56.064;26.178;2023-01-04T09:06:35;2.20;;;0.85;;
64225;SDS011;50545;56.064;26.178;2023-01-04T09:09:03;1.23;;;0.60;;
64225;SDS011;50545;56.064;26.178;2023-01-04T09:11:31;0.98;;;0.60;;
64225;SDS011;50545;56.064;26.178;2023-01-04T09:13:58;1.58;;;0.82;;
64225;SDS011;50545;56.064;26.178;2023-01-04T09:16:35;1.83;;;1.00;;
64225;SDS011;50545;56.064;26.178;2023-01-04T09:19:04;1.17;;;0.85;;
64225;SDS011;50545;56.064;26.178;2023-01-04T09:21:31;1.20;;;0.77;;
64225;SDS011;50545;56.064;26.178;2023-01-04T09:24:00;0.88;;;0.80;;
64225;SDS011;50545;56.064;26.178;2023-01-04T09:26:28;0.95;;;0.80;;
64225;SDS011;50545;56.064;26.178;2023-01-04T09:28:55;1.00;;;0.65;;
64225;SDS011;50545;56.064;26.178;2023-01-04T09:31:23;1.38;;;0.60;;
64225;SDS011;50545;56.064;26.178;2023-01-04T09:33:53;3.42;;;1.25;;
64225;SDS011;50545;56.064;26.178;2023-01-04T09:36:40;2.25;;;1.05;;
64225;SDS011;50545;56.064;26.178;2023-01-04T09:39:08;2.45;;;1.20;;
64225;SDS011;50545;56.064;26.178;2023-01-04T09:41:48;2.53;;;1.48;;
64225;SDS011;50545;56.064;26.178;2023-01-04T09:44:29;2.53;;;1.40;;
64225;SDS011;50545;56.064;26.178;2023-01-04T09:47:33;2.67;;;1.20;;
64225;SDS011;50545;56.064;26.178;2023-01-04T09:50:21;3.63;;;0.93;;
64225;SDS011;50545;56.064;26.178;2023-01-04T09:55:46;1.60;;;0.88;;
64225;SDS011;50545;56.064;26.178;2023-01-04T09:58:29;1.67;;;0.90;;
64225;SDS011;50545;56.064;26.178;2023-01-04T10:03:32;1.75;;;0.82;;
64225;SDS011;50545;56.064;26.178;2023-01-04T10:06:01;0.70;;;0.70;;
64225;SDS011;50545;56.064;26.178;2023-01-04T10:08:29;0.93;;;0.80;;
64225;SDS011;50545;56.064;26.178;2023-01-04T10:17:10;2.05;;;0.80;;
64225;SDS011;50545;56.064;26.178;2023-01-04T10:28:27;2.83;;;0.90;;
64225;SDS011;50545;56.064;26.178;2023-01-04T10:31:19;1.33;;;0.90;;
64225;SDS011;50545;56.064;26.178;2023-01-04T10:37:05;1.95;;;0.70;;
64225;SDS011;50545;56.064;26.178;2023-01-04T10:39:51;2.83;;;1.10;;
64225;SDS011;50545;56.064;26.178;2023-01-04T10:45:20;2.20;;;1.20;;
64225;SDS011;50545;56.064;26.178;2023-01-04T10:53:31;1.73;;;1.00;;
64225;SDS011;50545;56.064;26.178;2023-01-04T11:01:34;1.67;;;1.15;;
64225;SDS011;50545;56.064;26.178;2023-01-04T11:07:05;1.42;;;0.65;;
64225;SDS011;50545;56.064;26.178;2023-01-04T11:10:12;1.13;;;0.88;;
64225;SDS011;50545;56.064;26.178;2023-01-04T11:12:45;0.50;;;0.50;;
64225;SDS011;50545;56.064;26.178;2023-01-04T11:15:12;1.05;;;0.70;;
64225;SDS011;50545;56.064;26.178;2023-01-04T11:17:40;1.42;;;0.90;;
64225;SDS011;50545;56.064;26.178;2023-01-04T11:20:08;1.30;;;0.73;;
64225;SDS011;50545;56.064;26.178;2023-01-04T11:25:48;0.93;;;0.73;;
64225;SDS011;50545;56.064;26.178;2023-01-04T11:28:39;1.05;;;0.57;;
64225;SDS011;50545;56.064;26.178;2023-01-04T11:34:15;1.05;;;0.63;;
64225;SDS011;50545;56.064;26.178;2023-01-04T11:36:43;0.70;;;0.55;;
64225;SDS011;50545;56.064;26.178;2023-01-04T11:39:18;1.65;;;0.70;;
64225;SDS011;50545;56.064;26.178;2023-01-04T11:41:54;1.55;;;0.70;;
64225;SDS011;50545;56.064;26.178;2023-01-04T11:44:30;1.98;;;0.77;;
64225;SDS011;50545;56.064;26.178;2023-01-04T11:49:46;0.88;;;0.80;;
64225;SDS011;50545;56.064;26.178;2023-01-04T11:55:34;3.30;;;1.02;;
64225;SDS011;50545;56.064;26.178;2023-01-04T11:58:10;2.83;;;1.30;;
64225;SDS011;50545;56.064;26.178;2023-01-04T12:00:59;1.67;;;1.40;;
64225;SDS011;50545;56.064;26.178;2023-01-04T12:05:55;2.70;;;1.30;;
64225;SDS011;50545;56.064;26.178;2023-01-04T12:08:30;3.90;;;1.80;;
64225;SDS011;50545;56.064;26.178;2023-01-04T12:10:59;2.20;;;1.70;;
64225;SDS011;50545;56.064;26.178;2023-01-04T12:13:31;2.53;;;1.75;;
64225;SDS011;50545;56.064;26.178;2023-01-04T12:21:04;2.17;;;1.80;;
64225;SDS011;50545;56.064;26.178;2023-01-04T12:23:32;2.33;;;1.80;;
64225;SDS011;50545;56.064;26.178;2023-01-04T12:25:59;2.13;;;1.80;;
64225;SDS011;50545;56.064;26.178;2023-01-04T12:28:28;3.38;;;1.63;;
64225;SDS011;50545;56.064;26.178;2023-01-04T12:50:17;2.58;;;1.75;;
64225;SDS011;50545;56.064;26.178;2023-01-04T12:52:57;3.15;;;1.73;;
64225;SDS011;50545;56.064;26.178;2023-01-04T12:55:50;1.80;;;1.70;;
64225;SDS011;50545;56.064;26.178;2023-01-04T13:01:27;1.90;;;1.70;;
64225;SDS011;50545;56.064;26.178;2023-01-04T13:03:56;1.70;;;1.60;;
64225;SDS011;50545;56.064;26.178;2023-01-04T13:06:33;1.30;;;1.20;;
64225;SDS011;50545;56.064;26.178;2023-01-04T13:09:13;2.40;;;1.50;;
64225;SDS011;50545;56.064;26.178;2023-01-04T13:14:35;2.45;;;1.83;;
64225;SDS011;50545;56.064;26.178;2023-01-04T13:17:15;1.48;;;1.35;;
64225;SDS011;50545;56.064;26.178;2023-01-04T13:19:44;2.85;;;1.65;;
64225;SDS011;50545;56.064;26.178;2023-01-04T13:22:25;1.70;;;1.40;;
64225;SDS011;50545;56.064;26.178;2023-01-04T13:24:56;2.83;;;1.40;;
64225;SDS011;50545;56.064;26.178;2023-01-04T13:27:25;3.15;;;1.63;;
64225;SDS011;50545;56.064;26.178;2023-01-04T13:29:53;1.83;;;1.30;;
64225;SDS011;50545;56.064;26.178;2023-01-04T13:32:23;2.35;;;1.48;;
64225;SDS011;50545;56.064;26.178;2023-01-04T13:37:34;2.13;;;1.50;;
64225;SDS011;50545;56.064;26.178;2023-01-04T13:43:37;2.85;;;1.88;;
64225;SDS011;50545;56.064;26.178;2023-01-04T13:48:42;2.15;;;1.50;;
64225;SDS011;50545;56.064;26.178;2023-01-04T13:51:17;2.22;;;1.40;;
64225;SDS011;50545;56.064;26.178;2023-01-04T13:53:57;2.35;;;1.52;;
64225;SDS011;50545;56.064;26.178;2023-01-04T13:56:26;2.17;;;1.20;;
64225;SDS011;50545;56.064;26.178;2023-01-04T13:58:55;1.55;;;1.20;;
64225;SDS011;50545;56.064;26.178;2023-01-04T14:01:23;2.63;;;1.58;;
64225;SDS011;50545;56.064;26.178;2023-01-04T14:04:00;1.27;;;0.93;;
64225;SDS011;50545;56.064;26.178;2023-01-04T14:06:30;1.48;;;1.10;;
64225;SDS011;50545;56.064;26.178;2023-01-04T14:09:19;1.73;;;1.20;;
64225;SDS011;50545;56.064;26.178;2023-01-04T14:11:56;1.23;;;0.88;;
64225;SDS011;50545;56.064;26.178;2023-01-04T14:14:53;1.40;;;0.93;;
64225;SDS011;50545;56.064;26.178;2023-01-04T14:31:11;1.98;;;1.20;;
64225;SDS011;50545;56.064;26.178;2023-01-04T14:33:43;1.50;;;0.95;;
64225;SDS011;50545;56.064;26.178;2023-01-04T14:36:14;2.13;;;0.90;;
64225;SDS011;50545;56.064;26.178;2023-01-04T14:44:19;0.93;;;0.88;;
64225;SDS011;50545;56.064;26.178;2023-01-04T14:46:49;0.80;;;0.60;;
64225;SDS011;50545;56.064;26.178;2023-01-04T14:49:17;0.57;;;0.57;;
64225;SDS011;50545;56.064;26.178;2023-01-04T14:52:00;2.03;;;0.80;;
64225;SDS011;50545;56.064;26.178;2023-01-04T14:54:29;0.50;;;0.50;;
64225;SDS011;50545;56.064;26.178;2023-01-04T14:56:57;0.75;;;0.60;;
64225;SDS011;50545;56.064;26.178;2023-01-04T14:59:25;1.50;;;1.05;;
64225;SDS011;50545;56.064;26.178;2023-01-04T15:01:52;0.98;;;0.73;;
64225;SDS011;50545;56.064;26.178;2023-01-04T15:04:21;1.55;;;0.90;;
64225;SDS011;50545;56.064;26.178;2023-01-04T15:06:53;0.70;;;0.70;;
64225;SDS011;50545;56.064;26.178;2023-01-04T15:09:25;0.55;;;0.55;;
64225;SDS011;50545;56.064;26.178;2023-01-04T15:11:53;0.70;;;0.70;;
64225;SDS011;50545;56.064;26.178;2023-01-04T15:14:21;1.05;;;0.77;;
64225;SDS011;50545;56.064;26.178;2023-01-04T15:16:48;0.52;;;0.52;;
64225;SDS011;50545;56.064;26.178;2023-01-04T15:19:16;1.60;;;0.80;;
64225;SDS011;50545;56.064;26.178;2023-01-04T15:21:43;0.85;;;0.70;;
64225;SDS011;50545;56.064;26.178;2023-01-04T15:24:10;1.88;;;0.70;;
64225;SDS011;50545;56.064;26.178;2023-01-04T15:26:38;0.55;;;0.55;;
64225;SDS011;50545;56.064;26.178;2023-01-04T15:29:06;1.42;;;0.70;;
64225;SDS011;50545;56.064;26.178;2023-01-04T15:31:34;2.50;;;0.98;;
64225;SDS011;50545;56.064;26.178;2023-01-04T15:34:06;0.88;;;0.70;;
64225;SDS011;50545;56.064;26.178;2023-01-04T15:36:34;2.13;;;1.00;;
64225;SDS011;50545;56.064;26.178;2023-01-04T15:39:04;1.98;;;0.70;;
64225;SDS011;50545;56.064;26.178;2023-01-04T15:41:32;1.30;;;0.98;;
64225;SDS011;50545;56.064;26.178;2023-01-04T15:44:18;0.88;;;0.85;;
64225;SDS011;50545;56.064;26.178;2023-01-04T15:46:45;0.57;;;0.52;;
64225;SDS011;50545;56.064;26.178;2023-01-04T15:49:12;2.03;;;0.80;;
64225;SDS011;50545;56.064;26.178;2023-01-04T15:54:10;1.50;;;0.70;;
64225;SDS011;50545;56.064;26.178;2023-01-04T15:56:37;0.70;;;0.70;;
64225;SDS011;50545;56.064;26.178;2023-01-04T15:59:05;2.22;;;1.08;;
64225;SDS011;50545;56.064;26.178;2023-01-04T16:01:32;1.75;;;1.25;;
64225;SDS011;50545;56.064;26.178;2023-01-04T16:03:59;1.35;;;1.13;;
64225;SDS011;50545;56.064;26.178;2023-01-04T16:06:28;1.42;;;0.93;;
64225;SDS011;50545;56.064;26.178;2023-01-04T16:08:55;1.95;;;0.93;;
64225;SDS011;50545;56.064;26.178;2023-01-04T16:11:24;3.30;;;1.23;;
64225;SDS011;50545;56.064;26.178;2023-01-04T16:13:51;1.48;;;0.75;;
64225;SDS011;50545;56.064;26.178;2023-01-04T16:16:19;1.27;;;1.00;;
64225;SDS011;50545;56.064;26.178;2023-01-04T16:18:49;1.48;;;1.13;;
64225;SDS011;50545;56.064;26.178;2023-01-04T16:21:22;1.13;;;0.93;;
64225;SDS011;50545;56.064;26.178;2023-01-04T16:23:51;2.75;;;1.35;;
64225;SDS011;50545;56.064;26.178;2023-01-04T16:26:29;2.28;;;1.20;;
64225;SDS011;50545;56.064;26.178;2023-01-04T16:28:56;1.58;;;1.20;;
64225;SDS011;50545;56.064;26.178;2023-01-04T16:31:23;1.77;;;1.30;;
64225;SDS011;50545;56.064;26.178;2023-01-04T16:33:51;1.42;;;1.08;;
64225;SDS011;50545;56.064;26.178;2023-01-04T16:36:19;1.25;;;0.98;;
64225;SDS011;50545;56.064;26.178;2023-01-04T16:38:46;1.60;;;1.00;;
64225;SDS011;50545;56.064;26.178;2023-01-04T16:41:14;1.20;;;1.10;;
64225;SDS011;50545;56.064;26.178;2023-01-04T16:48:43;2.28;;;1.38;;
64225;SDS011;50545;56.064;26.178;2023-01-04T16:51:11;0.80;;;0.75;;
64225;SDS011;50545;56.064;26.178;2023-01-04T16:53:38;3.25;;;1.40;;
64225;SDS011;50545;56.064;26.178;2023-01-04T16:56:06;2.97;;;1.33;;
64225;SDS011;50545;56.064;26.178;2023-01-04T16:58:35;1.52;;;1.00;;
64225;SDS011;50545;56.064;26.178;2023-01-04T17:03:35;2.08;;;1.20;;
64225;SDS011;50545;56.064;26.178;2023-01-04T17:06:09;1.00;;;0.88;;
64225;SDS011;50545;56.064;26.178;2023-01-04T17:08:42;1.80;;;1.17;;
64225;SDS011;50545;56.064;26.178;2023-01-04T17:11:11;1.48;;;0.85;;
64225;SDS011;50545;56.064;26.178;2023-01-04T17:16:28;1.05;;;0.93;;
64225;SDS011;50545;56.064;26.178;2023-01-04T17:19:00;0.95;;;0.93;;
64225;SDS011;50545;56.064;26.178;2023-01-04T17:21:27;0.88;;;0.85;;
64225;SDS011;50545;56.064;26.178;2023-01-04T17:24:00;1.17;;;1.00;;
64225;SDS011;50545;56.064;26.178;2023-01-04T17:26:29;2.47;;;1.33;;
64225;SDS011;50545;56.064;26.178;2023-01-04T17:28:58;2.80;;;1.30;;
64225;SDS011;50545;56.064;26.178;2023-01-04T17:31:28;1.95;;;1.50;;
64225;SDS011;50545;56.064;26.178;2023-01-04T17:33:56;1.70;;;1.10;;
64225;SDS011;50545;56.064;26.178;2023-01-04T17:36:24;3.22;;;1.20;;
64225;SDS011;50545;56.064;26.178;2023-01-04T17:38:51;2.25;;;1.50;;
64225;SDS011;50545;56.064;26.178;2023-01-04T17:41:19;1.35;;;1.20;;
64225;SDS011;50545;56.064;26.178;2023-01-04T17:43:53;1.92;;;1.40;;
64225;SDS011;50545;56.064;26.178;2023-01-04T17:46:23;2.58;;;1.40;;
64225;SDS011;50545;56.064;26.178;2023-01-04T17:48:50;2.97;;;1.60;;